Historique des mesures à Cassis (13260), France
Quotidien Résumé Janvier 26, 2018 Unités:  Métrique    US   Métrique/US
« Précédent (Jour)
Suivant (Jour) »
Quotidien Hebdomadaire Mensuel Annuel Période au choix
  Maximum: Minimum: Moyenne:
Température: -17.8 °C -11.5 °C -11.2 °C
Point de rosée: -17.8 °C -13.2 °C -12.9 °C
Humidité: Humidity % 71 % 77 %
Vitesse du vent: 0 km/h 0 km/h 11.1 km/h
Rafales: 0 km/h - -
Vent:- - ESE
Pression: 0 hPa 34212.1 hPa -
Précipitations: 302.26 mm    
Historical Graphs
 
 
Mesures pour : Janvier 26, 2018
Heure Temperature Point de rosée Pression Vent Vitesse du vent Rafales Humidité Pluie (par heure) Conditions
-17.8 °C -17.8 °C 0 hPa Calm     Humidity % 0 mm SoftwareType W/m2
00:12 -10.4 °C -12.5 °C 34361.1 hPa Calm   14 km/h 78 % 0 mm open2300-1.11 W/m2
01:12 -10.3 °C -12.4 °C 34337.4 hPa Calm   16.3 km/h 78 % 0 mm open2300-1.11 W/m2
02:12 -10.4 °C -12.8 °C 34313.7 hPa SE 14.5 km/h 20.9 km/h 75 % 0 mm open2300-1.11 W/m2
03:12 -10.3 °C -13.2 °C 34293.4 hPa SE 19.6 km/h 19.6 km/h 71 % 0 mm open2300-1.11 W/m2
04:12 -10.3 °C -13.1 °C 34256.2 hPa ESE 6.9 km/h 8 km/h 72 % 0 mm open2300-1.11 W/m2
05:12 -10.4 °C -13.2 °C 34256.2 hPa ESE 33.6 km/h 33.6 km/h 72 % 0 mm open2300-1.11 W/m2
06:12 -10.7 °C -13.1 °C 34235.8 hPa ENE 17.9 km/h 19.6 km/h 75 % 0 mm open2300-1.11 W/m2
07:12 -10.6 °C -13 °C 34222.3 hPa SE 15 km/h 15 km/h 75 % 0 mm open2300-1.11 W/m2
08:12 -11 °C -12.8 °C 34222.3 hPa ESE 8.9 km/h 8.9 km/h 80 % 12.7 mm open2300-1.11 W/m2
09:12 -11.1 °C -12.9 °C 34222.3 hPa ESE 9.3 km/h 14.5 km/h 80 % 12.7 mm open2300-1.11 W/m2
10:12 -11.1 °C -12.6 °C 34235.8 hPa SE 9.3 km/h 9.3 km/h 83 % 0 mm open2300-1.11 W/m2
11:12 -11.2 °C -12.6 °C 34256.2 hPa ESE 12.7 km/h 12.7 km/h 84 % 12.7 mm open2300-1.11 W/m2
12:12 -11.2 °C -12.8 °C 34246 hPa ESE 14 km/h 15 km/h 83 % 12.7 mm open2300-1.11 W/m2
13:12 -11.2 °C -12.8 °C 34222.3 hPa Calm   9.3 km/h 83 % 0 mm open2300-1.11 W/m2
14:12 -11.2 °C -12.6 °C 34222.3 hPa Calm   10.3 km/h 84 % 0 mm open2300-1.11 W/m2
15:12 -11.2 °C -12.7 °C 34212.1 hPa SE 14 km/h 14 km/h 84 % 12.7 mm open2300-1.11 W/m2
16:12 -11.3 °C -12.9 °C 34212.1 hPa ESE 20.3 km/h 20.3 km/h 83 % 12.7 mm open2300-1.11 W/m2
17:12 -11.1 °C -13 °C 34212.1 hPa NNE 2.9 km/h 12.2 km/h 79 % 0 mm open2300-1.11 W/m2
18:12 -11.4 °C -12.9 °C 34235.8 hPa SE 5.6 km/h 7.6 km/h 84 % 50.8 mm open2300-1.11 W/m2
19:12 -11.5 °C -12.8 °C 34246 hPa Calm   7.6 km/h 86 % 63.5 mm open2300-1.11 W/m2
20:12 -11.5 °C -12.8 °C 34246 hPa ESE 9.3 km/h 23.8 km/h 86 % 12.7 mm open2300-1.11 W/m2
21:12 -11.2 °C -12.3 °C 34256.2 hPa SE 34.8 km/h 34.8 km/h 87 % 0 mm open2300-1.11 W/m2
22:12 -10.8 °C -12 °C 34293.4 hPa SE 16.9 km/h 23.8 km/h 87 % 0 mm open2300-1.11 W/m2
23:12 -10.9 °C -12.1 °C 34327.3 hPa SE 10.3 km/h 10.3 km/h 87 % 0 mm open2300-1.11 W/m2
Observations météo à CASSIS
WU-History script by Weather Underground - 1 mb